Location Isle ofWight, ISLE OF WIGHT, UK

ob UISISLE1 220800Z AUTO 34004G05KT CLR 08/05 A3062 RMK SLPNO 

2018.10.22 0800 UTC
Wind from the NNW (336 degrees) at 4.2 MPH (4 KT) gusting to 6.2 MPH (5 KT)
Visibility    Mile(s)
Sky Conditions  clear
Temperature 46.4 F (8 C)
Dew Point 40.9 F (5 C)
Relative Humidity 81%
Pressure   30.620 in. Hg (1037 hPa)
Rain  0.00 in.
Daily Rain 0.000 in.

Station Name  Isle of Wight Weather
Longitude, Latitude  -1.27, 50.72
Elevation 45
Station URL http://www.isleofwightweather.co.uk
Software Type WeatherDisplay:10.37R